sensor_id;sensor_type;location;lat;lon;timestamp;temperature;humidity
67974;DHT22;54756;51.140;6.952;2022-10-16T00:00:11;13.20;99.90
67974;DHT22;54756;51.140;6.952;2022-10-16T00:02:12;13.20;99.90
67974;DHT22;54756;51.140;6.952;2022-10-16T00:04:13;13.20;99.90
67974;DHT22;54756;51.140;6.952;2022-10-16T00:06:15;13.20;99.90
67974;DHT22;54756;51.140;6.952;2022-10-16T00:08:16;13.10;99.90
67974;DHT22;54756;51.140;6.952;2022-10-16T00:10:16;13.20;99.90
67974;DHT22;54756;51.140;6.952;2022-10-16T00:12:17;13.10;99.90
67974;DHT22;54756;51.140;6.952;2022-10-16T00:14:17;13.10;99.90
67974;DHT22;54756;51.140;6.952;2022-10-16T00:16:18;13.10;99.90
67974;DHT22;54756;51.140;6.952;2022-10-16T00:18:19;13.20;99.90
67974;DHT22;54756;51.140;6.952;2022-10-16T00:20:19;13.20;99.90
67974;DHT22;54756;51.140;6.952;2022-10-16T00:22:20;13.20;99.90
67974;DHT22;54756;51.140;6.952;2022-10-16T00:24:21;13.20;99.90
67974;DHT22;54756;51.140;6.952;2022-10-16T00:26:22;13.20;99.90
67974;DHT22;54756;51.140;6.952;2022-10-16T00:28:23;13.20;99.90
67974;DHT22;54756;51.140;6.952;2022-10-16T00:30:23;13.20;99.90
67974;DHT22;54756;51.140;6.952;2022-10-16T00:32:24;13.20;99.90
67974;DHT22;54756;51.140;6.952;2022-10-16T00:34:24;13.20;99.90
67974;DHT22;54756;51.140;6.952;2022-10-16T00:36:26;13.20;99.90
67974;DHT22;54756;51.140;6.952;2022-10-16T00:38:26;13.20;99.90
67974;DHT22;54756;51.140;6.952;2022-10-16T00:40:27;13.20;99.90
67974;DHT22;54756;51.140;6.952;2022-10-16T00:42:28;13.10;99.90
67974;DHT22;54756;51.140;6.952;2022-10-16T00:46:46;13.00;99.90
67974;DHT22;54756;51.140;6.952;2022-10-16T00:48:52;13.00;99.90
67974;DHT22;54756;51.140;6.952;2022-10-16T00:50:55;12.90;99.90
67974;DHT22;54756;51.140;6.952;2022-10-16T00:52:58;12.80;99.90
67974;DHT22;54756;51.140;6.952;2022-10-16T00:54:59;12.80;99.90
67974;DHT22;54756;51.140;6.952;2022-10-16T00:57:04;12.70;99.90
67974;DHT22;54756;51.140;6.952;2022-10-16T00:59:10;12.70;99.90
67974;DHT22;54756;51.140;6.952;2022-10-16T01:01:14;12.60;99.90
67974;DHT22;54756;51.140;6.952;2022-10-16T01:03:33;12.60;99.90
67974;DHT22;54756;51.140;6.952;2022-10-16T01:05:44;12.60;99.90
67974;DHT22;54756;51.140;6.952;2022-10-16T01:07:53;12.50;99.90
67974;DHT22;54756;51.140;6.952;2022-10-16T01:12:40;12.50;99.90
67974;DHT22;54756;51.140;6.952;2022-10-16T01:14:56;12.50;99.90
67974;DHT22;54756;51.140;6.952;2022-10-16T01:17:04;12.50;99.90
67974;DHT22;54756;51.140;6.952;2022-10-16T01:19:26;12.50;99.90
67974;DHT22;54756;51.140;6.952;2022-10-16T01:21:36;12.50;99.90
67974;DHT22;54756;51.140;6.952;2022-10-16T01:24:00;12.40;99.90
67974;DHT22;54756;51.140;6.952;2022-10-16T01:26:13;12.40;99.90
67974;DHT22;54756;51.140;6.952;2022-10-16T01:28:15;12.40;99.90
67974;DHT22;54756;51.140;6.952;2022-10-16T01:30:26;12.40;99.90
67974;DHT22;54756;51.140;6.952;2022-10-16T01:34:41;12.50;99.90
67974;DHT22;54756;51.140;6.952;2022-10-16T01:36:52;12.50;99.90
67974;DHT22;54756;51.140;6.952;2022-10-16T01:38:56;12.50;99.90
67974;DHT22;54756;51.140;6.952;2022-10-16T01:41:08;12.50;99.90
67974;DHT22;54756;51.140;6.952;2022-10-16T01:43:14;12.50;99.90
67974;DHT22;54756;51.140;6.952;2022-10-16T01:45:17;12.60;99.90
67974;DHT22;54756;51.140;6.952;2022-10-16T01:47:22;12.60;99.90
67974;DHT22;54756;51.140;6.952;2022-10-16T01:49:26;12.60;99.90
67974;DHT22;54756;51.140;6.952;2022-10-16T01:51:28;12.60;99.90
67974;DHT22;54756;51.140;6.952;2022-10-16T01:53:29;12.60;99.90
67974;DHT22;54756;51.140;6.952;2022-10-16T01:55:35;12.60;99.90
67974;DHT22;54756;51.140;6.952;2022-10-16T01:57:38;12.70;99.90
67974;DHT22;54756;51.140;6.952;2022-10-16T01:59:47;12.70;99.90
67974;DHT22;54756;51.140;6.952;2022-10-16T02:01:51;12.70;99.90
67974;DHT22;54756;51.140;6.952;2022-10-16T02:03:54;12.70;99.90
67974;DHT22;54756;51.140;6.952;2022-10-16T02:05:56;12.70;99.90
67974;DHT22;54756;51.140;6.952;2022-10-16T02:07:58;12.70;99.90
67974;DHT22;54756;51.140;6.952;2022-10-16T02:10:00;12.70;99.90
67974;DHT22;54756;51.140;6.952;2022-10-16T02:12:08;12.70;99.90
67974;DHT22;54756;51.140;6.952;2022-10-16T02:14:10;12.70;99.90
67974;DHT22;54756;51.140;6.952;2022-10-16T02:16:13;12.70;99.90
67974;DHT22;54756;51.140;6.952;2022-10-16T02:18:14;12.70;99.90
67974;DHT22;54756;51.140;6.952;2022-10-16T02:20:15;12.80;99.90
67974;DHT22;54756;51.140;6.952;2022-10-16T02:22:21;12.80;99.90
67974;DHT22;54756;51.140;6.952;2022-10-16T02:25:35;12.80;99.90
67974;DHT22;54756;51.140;6.952;2022-10-16T02:27:09;12.80;99.90
67974;DHT22;54756;51.140;6.952;2022-10-16T02:29:14;12.90;99.90
67974;DHT22;54756;51.140;6.952;2022-10-16T02:31:19;12.90;99.90
67974;DHT22;54756;51.140;6.952;2022-10-16T02:33:23;12.90;99.90
67974;DHT22;54756;51.140;6.952;2022-10-16T02:35:25;13.00;99.90
67974;DHT22;54756;51.140;6.952;2022-10-16T02:37:28;13.00;99.90
67974;DHT22;54756;51.140;6.952;2022-10-16T02:39:29;13.00;99.90
67974;DHT22;54756;51.140;6.952;2022-10-16T02:41:30;13.00;99.90
67974;DHT22;54756;51.140;6.952;2022-10-16T02:43:31;13.00;99.90
67974;DHT22;54756;51.140;6.952;2022-10-16T02:45:33;13.10;99.90
67974;DHT22;54756;51.140;6.952;2022-10-16T02:47:34;13.10;99.90
67974;DHT22;54756;51.140;6.952;2022-10-16T02:49:34;13.10;99.90
67974;DHT22;54756;51.140;6.952;2022-10-16T02:51:35;13.10;99.90
67974;DHT22;54756;51.140;6.952;2022-10-16T02:53:35;13.10;99.90
67974;DHT22;54756;51.140;6.952;2022-10-16T02:55:36;13.10;99.90
67974;DHT22;54756;51.140;6.952;2022-10-16T02:57:37;13.10;99.90
67974;DHT22;54756;51.140;6.952;2022-10-16T02:59:37;13.10;99.90
67974;DHT22;54756;51.140;6.952;2022-10-16T03:01:38;13.10;99.90
67974;DHT22;54756;51.140;6.952;2022-10-16T03:03:39;13.10;99.90
67974;DHT22;54756;51.140;6.952;2022-10-16T03:05:39;13.10;99.90
67974;DHT22;54756;51.140;6.952;2022-10-16T03:07:40;13.00;99.90
67974;DHT22;54756;51.140;6.952;2022-10-16T03:09:40;13.00;99.90
67974;DHT22;54756;51.140;6.952;2022-10-16T03:11:41;13.00;99.90
67974;DHT22;54756;51.140;6.952;2022-10-16T03:13:41;13.00;99.90
67974;DHT22;54756;51.140;6.952;2022-10-16T03:15:43;13.00;99.90
67974;DHT22;54756;51.140;6.952;2022-10-16T03:17:43;12.90;99.90
67974;DHT22;54756;51.140;6.952;2022-10-16T03:19:44;12.90;99.90
67974;DHT22;54756;51.140;6.952;2022-10-16T03:21:45;12.90;99.90
67974;DHT22;54756;51.140;6.952;2022-10-16T03:23:46;12.80;99.90
67974;DHT22;54756;51.140;6.952;2022-10-16T03:25:47;12.80;99.90
67974;DHT22;54756;51.140;6.952;2022-10-16T03:27:47;12.70;99.90
67974;DHT22;54756;51.140;6.952;2022-10-16T03:29:48;12.70;99.90
67974;DHT22;54756;51.140;6.952;2022-10-16T03:31:48;12.60;99.90
67974;DHT22;54756;51.140;6.952;2022-10-16T03:33:49;12.60;99.90
67974;DHT22;54756;51.140;6.952;2022-10-16T03:35:54;12.60;99.90
67974;DHT22;54756;51.140;6.952;2022-10-16T03:37:54;12.50;99.90
67974;DHT22;54756;51.140;6.952;2022-10-16T03:39:55;12.50;99.90
67974;DHT22;54756;51.140;6.952;2022-10-16T03:41:55;12.50;99.90
67974;DHT22;54756;51.140;6.952;2022-10-16T03:43:56;12.50;99.90
67974;DHT22;54756;51.140;6.952;2022-10-16T03:45:57;12.40;99.90
67974;DHT22;54756;51.140;6.952;2022-10-16T03:47:57;12.40;99.90
67974;DHT22;54756;51.140;6.952;2022-10-16T03:49:58;12.40;99.90
67974;DHT22;54756;51.140;6.952;2022-10-16T03:51:58;12.30;99.90
67974;DHT22;54756;51.140;6.952;2022-10-16T03:53:59;12.30;99.90
67974;DHT22;54756;51.140;6.952;2022-10-16T03:55:59;12.30;99.90
67974;DHT22;54756;51.140;6.952;2022-10-16T03:58:00;12.30;99.90
67974;DHT22;54756;51.140;6.952;2022-10-16T04:00:01;12.30;99.90
67974;DHT22;54756;51.140;6.952;2022-10-16T04:02:02;12.20;99.90
67974;DHT22;54756;51.140;6.952;2022-10-16T04:04:02;12.20;99.90
67974;DHT22;54756;51.140;6.952;2022-10-16T04:06:03;12.20;99.90
67974;DHT22;54756;51.140;6.952;2022-10-16T04:08:04;12.20;99.90
67974;DHT22;54756;51.140;6.952;2022-10-16T04:10:05;12.20;99.90
67974;DHT22;54756;51.140;6.952;2022-10-16T04:12:05;12.20;99.90
67974;DHT22;54756;51.140;6.952;2022-10-16T04:14:06;12.20;99.90
67974;DHT22;54756;51.140;6.952;2022-10-16T04:16:06;12.20;99.90
67974;DHT22;54756;51.140;6.952;2022-10-16T04:18:07;12.20;99.90
67974;DHT22;54756;51.140;6.952;2022-10-16T04:20:08;12.20;99.90
67974;DHT22;54756;51.140;6.952;2022-10-16T04:22:09;12.20;99.90
67974;DHT22;54756;51.140;6.952;2022-10-16T04:24:09;12.20;99.90
67974;DHT22;54756;51.140;6.952;2022-10-16T04:26:11;12.20;99.90
67974;DHT22;54756;51.140;6.952;2022-10-16T04:28:12;12.20;99.90
67974;DHT22;54756;51.140;6.952;2022-10-16T04:30:13;12.20;99.90
67974;DHT22;54756;51.140;6.952;2022-10-16T04:32:13;12.10;99.90
67974;DHT22;54756;51.140;6.952;2022-10-16T04:34:14;12.10;99.90
67974;DHT22;54756;51.140;6.952;2022-10-16T04:36:14;12.10;99.90
67974;DHT22;54756;51.140;6.952;2022-10-16T04:38:15;12.00;99.90
67974;DHT22;54756;51.140;6.952;2022-10-16T04:40:16;12.00;99.90
67974;DHT22;54756;51.140;6.952;2022-10-16T04:42:16;12.00;99.90
67974;DHT22;54756;51.140;6.952;2022-10-16T04:44:17;12.00;99.90
67974;DHT22;54756;51.140;6.952;2022-10-16T04:46:17;11.90;99.90
67974;DHT22;54756;51.140;6.952;2022-10-16T04:48:18;11.90;99.90
67974;DHT22;54756;51.140;6.952;2022-10-16T04:50:19;11.90;99.90
67974;DHT22;54756;51.140;6.952;2022-10-16T04:52:19;11.80;99.90
67974;DHT22;54756;51.140;6.952;2022-10-16T04:54:21;11.80;99.90
67974;DHT22;54756;51.140;6.952;2022-10-16T04:56:22;11.70;99.90
67974;DHT22;54756;51.140;6.952;2022-10-16T04:58:23;11.70;99.90
67974;DHT22;54756;51.140;6.952;2022-10-16T05:00:23;11.70;99.90
67974;DHT22;54756;51.140;6.952;2022-10-16T05:02:24;11.70;99.90
67974;DHT22;54756;51.140;6.952;2022-10-16T05:04:25;11.80;99.90
67974;DHT22;54756;51.140;6.952;2022-10-16T05:06:25;11.80;99.90
67974;DHT22;54756;51.140;6.952;2022-10-16T05:08:26;11.80;99.90
67974;DHT22;54756;51.140;6.952;2022-10-16T05:10:26;11.80;99.90
67974;DHT22;54756;51.140;6.952;2022-10-16T05:12:27;11.80;99.90
67974;DHT22;54756;51.140;6.952;2022-10-16T05:14:27;11.70;99.90
67974;DHT22;54756;51.140;6.952;2022-10-16T05:16:28;11.70;99.90
67974;DHT22;54756;51.140;6.952;2022-10-16T05:18:29;11.70;99.90
67974;DHT22;54756;51.140;6.952;2022-10-16T05:20:29;11.70;99.90
67974;DHT22;54756;51.140;6.952;2022-10-16T05:22:30;11.70;99.90
67974;DHT22;54756;51.140;6.952;2022-10-16T05:24:30;11.70;99.90
67974;DHT22;54756;51.140;6.952;2022-10-16T05:26:31;11.70;99.90
67974;DHT22;54756;51.140;6.952;2022-10-16T05:28:32;11.60;99.90
67974;DHT22;54756;51.140;6.952;2022-10-16T05:30:32;11.60;99.90
67974;DHT22;54756;51.140;6.952;2022-10-16T05:32:33;11.60;99.90
67974;DHT22;54756;51.140;6.952;2022-10-16T05:34:33;11.60;99.90
67974;DHT22;54756;51.140;6.952;2022-10-16T05:36:34;11.60;99.90
67974;DHT22;54756;51.140;6.952;2022-10-16T05:38:36;11.60;99.90
67974;DHT22;54756;51.140;6.952;2022-10-16T05:40:36;11.50;99.90
67974;DHT22;54756;51.140;6.952;2022-10-16T05:42:37;11.60;99.90
67974;DHT22;54756;51.140;6.952;2022-10-16T05:44:37;11.60;99.90
67974;DHT22;54756;51.140;6.952;2022-10-16T05:46:38;11.60;99.90
67974;DHT22;54756;51.140;6.952;2022-10-16T05:48:39;11.60;99.90
67974;DHT22;54756;51.140;6.952;2022-10-16T05:50:39;11.60;99.90
67974;DHT22;54756;51.140;6.952;2022-10-16T05:52:40;11.60;99.90
67974;DHT22;54756;51.140;6.952;2022-10-16T05:54:40;11.70;99.90
67974;DHT22;54756;51.140;6.952;2022-10-16T05:56:41;11.70;99.90
67974;DHT22;54756;51.140;6.952;2022-10-16T05:58:41;11.70;99.90
67974;DHT22;54756;51.140;6.952;2022-10-16T06:00:42;11.80;99.90
67974;DHT22;54756;51.140;6.952;2022-10-16T06:02:42;11.80;99.90
67974;DHT22;54756;51.140;6.952;2022-10-16T06:04:43;11.80;99.90
67974;DHT22;54756;51.140;6.952;2022-10-16T06:06:44;11.80;99.90
67974;DHT22;54756;51.140;6.952;2022-10-16T06:08:45;11.80;99.90
67974;DHT22;54756;51.140;6.952;2022-10-16T06:10:46;11.90;99.90
67974;DHT22;54756;51.140;6.952;2022-10-16T06:12:47;11.90;99.90
67974;DHT22;54756;51.140;6.952;2022-10-16T06:14:48;12.00;99.90
67974;DHT22;54756;51.140;6.952;2022-10-16T06:16:48;12.00;99.90
67974;DHT22;54756;51.140;6.952;2022-10-16T06:18:54;12.00;99.90
67974;DHT22;54756;51.140;6.952;2022-10-16T06:20:57;12.10;99.90
67974;DHT22;54756;51.140;6.952;2022-10-16T06:22:58;12.10;99.90
67974;DHT22;54756;51.140;6.952;2022-10-16T06:24:58;12.20;99.90
67974;DHT22;54756;51.140;6.952;2022-10-16T06:26:59;12.20;99.90
67974;DHT22;54756;51.140;6.952;2022-10-16T06:29:00;12.30;99.90
67974;DHT22;54756;51.140;6.952;2022-10-16T06:31:02;12.30;99.90
67974;DHT22;54756;51.140;6.952;2022-10-16T06:33:03;12.30;99.90
67974;DHT22;54756;51.140;6.952;2022-10-16T06:35:04;12.30;99.90
67974;DHT22;54756;51.140;6.952;2022-10-16T06:37:04;12.40;99.90
67974;DHT22;54756;51.140;6.952;2022-10-16T06:39:05;12.40;99.90
67974;DHT22;54756;51.140;6.952;2022-10-16T06:41:09;12.50;99.90
67974;DHT22;54756;51.140;6.952;2022-10-16T06:43:10;12.50;99.90
67974;DHT22;54756;51.140;6.952;2022-10-16T06:45:10;12.60;99.90
67974;DHT22;54756;51.140;6.952;2022-10-16T06:47:11;12.60;99.90
67974;DHT22;54756;51.140;6.952;2022-10-16T06:49:12;12.70;99.90
67974;DHT22;54756;51.140;6.952;2022-10-16T06:51:14;12.80;99.90
67974;DHT22;54756;51.140;6.952;2022-10-16T06:53:15;12.90;99.90
67974;DHT22;54756;51.140;6.952;2022-10-16T06:55:16;13.00;99.90
67974;DHT22;54756;51.140;6.952;2022-10-16T06:57:17;13.10;99.90
67974;DHT22;54756;51.140;6.952;2022-10-16T06:59:18;13.10;99.90
67974;DHT22;54756;51.140;6.952;2022-10-16T07:01:20;13.30;99.90
67974;DHT22;54756;51.140;6.952;2022-10-16T07:03:21;13.30;99.90
67974;DHT22;54756;51.140;6.952;2022-10-16T07:05:21;13.50;99.90
67974;DHT22;54756;51.140;6.952;2022-10-16T07:07:22;13.50;99.90
67974;DHT22;54756;51.140;6.952;2022-10-16T07:09:24;13.60;99.90
67974;DHT22;54756;51.140;6.952;2022-10-16T07:11:25;13.70;99.90
67974;DHT22;54756;51.140;6.952;2022-10-16T07:13:26;13.70;99.90
67974;DHT22;54756;51.140;6.952;2022-10-16T07:15:27;13.80;99.90
67974;DHT22;54756;51.140;6.952;2022-10-16T07:17:28;13.80;99.90
67974;DHT22;54756;51.140;6.952;2022-10-16T07:19:28;13.80;99.90
67974;DHT22;54756;51.140;6.952;2022-10-16T07:21:32;13.80;99.90
67974;DHT22;54756;51.140;6.952;2022-10-16T07:23:36;13.70;99.90
67974;DHT22;54756;51.140;6.952;2022-10-16T07:25:36;13.70;99.90
67974;DHT22;54756;51.140;6.952;2022-10-16T07:27:37;13.70;99.90
67974;DHT22;54756;51.140;6.952;2022-10-16T07:29:38;13.60;99.90
67974;DHT22;54756;51.140;6.952;2022-10-16T07:31:38;13.60;99.90
67974;DHT22;54756;51.140;6.952;2022-10-16T07:33:41;13.50;99.90
67974;DHT22;54756;51.140;6.952;2022-10-16T07:35:53;13.50;99.90
67974;DHT22;54756;51.140;6.952;2022-10-16T07:37:54;13.50;99.90
67974;DHT22;54756;51.140;6.952;2022-10-16T07:39:55;13.40;99.90
67974;DHT22;54756;51.140;6.952;2022-10-16T07:41:55;13.40;99.90
67974;DHT22;54756;51.140;6.952;2022-10-16T07:43:56;13.30;99.90
67974;DHT22;54756;51.140;6.952;2022-10-16T07:46:00;13.30;99.90
67974;DHT22;54756;51.140;6.952;2022-10-16T07:48:01;13.30;99.90
67974;DHT22;54756;51.140;6.952;2022-10-16T07:50:01;13.20;99.90
67974;DHT22;54756;51.140;6.952;2022-10-16T07:52:02;13.20;99.90
67974;DHT22;54756;51.140;6.952;2022-10-16T07:54:03;13.30;99.90
67974;DHT22;54756;51.140;6.952;2022-10-16T07:56:05;13.30;99.90
67974;DHT22;54756;51.140;6.952;2022-10-16T07:58:06;13.30;99.90
67974;DHT22;54756;51.140;6.952;2022-10-16T08:00:07;13.40;99.90
67974;DHT22;54756;51.140;6.952;2022-10-16T08:02:13;13.60;99.90
67974;DHT22;54756;51.140;6.952;2022-10-16T08:04:14;13.70;99.90
67974;DHT22;54756;51.140;6.952;2022-10-16T08:06:15;13.90;99.90
67974;DHT22;54756;51.140;6.952;2022-10-16T08:08:17;14.10;99.90
67974;DHT22;54756;51.140;6.952;2022-10-16T08:10:19;14.20;99.90
67974;DHT22;54756;51.140;6.952;2022-10-16T08:12:20;14.30;99.90
67974;DHT22;54756;51.140;6.952;2022-10-16T08:14:20;14.50;99.90
67974;DHT22;54756;51.140;6.952;2022-10-16T08:16:21;14.60;99.90
67974;DHT22;54756;51.140;6.952;2022-10-16T08:18:22;14.80;99.90
67974;DHT22;54756;51.140;6.952;2022-10-16T08:20:23;14.90;99.90
67974;DHT22;54756;51.140;6.952;2022-10-16T08:22:24;14.90;99.90
67974;DHT22;54756;51.140;6.952;2022-10-16T08:24:24;15.10;99.90
67974;DHT22;54756;51.140;6.952;2022-10-16T08:26:26;15.10;99.90
67974;DHT22;54756;51.140;6.952;2022-10-16T08:28:26;15.20;99.90
67974;DHT22;54756;51.140;6.952;2022-10-16T08:30:27;15.20;99.90
67974;DHT22;54756;51.140;6.952;2022-10-16T08:32:27;15.30;99.90
67974;DHT22;54756;51.140;6.952;2022-10-16T08:34:28;15.40;99.90
67974;DHT22;54756;51.140;6.952;2022-10-16T08:36:29;15.40;99.90
67974;DHT22;54756;51.140;6.952;2022-10-16T08:38:29;15.50;99.90
67974;DHT22;54756;51.140;6.952;2022-10-16T08:40:32;15.60;99.90
67974;DHT22;54756;51.140;6.952;2022-10-16T08:43:11;15.60;99.90
67974;DHT22;54756;51.140;6.952;2022-10-16T08:48:23;15.80;99.90
67974;DHT22;54756;51.140;6.952;2022-10-16T08:50:29;15.90;99.90
67974;DHT22;54756;51.140;6.952;2022-10-16T08:52:33;15.90;99.90
67974;DHT22;54756;51.140;6.952;2022-10-16T08:54:38;15.90;99.90
67974;DHT22;54756;51.140;6.952;2022-10-16T08:56:42;15.90;99.90
67974;DHT22;54756;51.140;6.952;2022-10-16T08:58:42;15.90;99.90
67974;DHT22;54756;51.140;6.952;2022-10-16T09:00:51;16.00;99.90
67974;DHT22;54756;51.140;6.952;2022-10-16T09:12:26;16.10;99.90
67974;DHT22;54756;51.140;6.952;2022-10-16T09:14:40;16.10;99.90
67974;DHT22;54756;51.140;6.952;2022-10-16T09:16:48;16.10;99.90
67974;DHT22;54756;51.140;6.952;2022-10-16T09:19:19;16.10;99.90
67974;DHT22;54756;51.140;6.952;2022-10-16T09:21:27;16.20;99.90
67974;DHT22;54756;51.140;6.952;2022-10-16T09:23:30;16.30;99.90
67974;DHT22;54756;51.140;6.952;2022-10-16T09:25:32;16.30;99.90
67974;DHT22;54756;51.140;6.952;2022-10-16T09:27:33;16.30;99.90
67974;DHT22;54756;51.140;6.952;2022-10-16T09:29:33;16.30;99.90
67974;DHT22;54756;51.140;6.952;2022-10-16T09:31:36;16.30;99.90
67974;DHT22;54756;51.140;6.952;2022-10-16T09:33:39;16.40;99.90
67974;DHT22;54756;51.140;6.952;2022-10-16T09:35:46;16.40;99.90
67974;DHT22;54756;51.140;6.952;2022-10-16T09:37:50;16.40;99.90
67974;DHT22;54756;51.140;6.952;2022-10-16T09:39:53;16.50;99.90
67974;DHT22;54756;51.140;6.952;2022-10-16T09:41:54;16.60;99.90
67974;DHT22;54756;51.140;6.952;2022-10-16T09:43:57;16.70;99.90
67974;DHT22;54756;51.140;6.952;2022-10-16T09:48:08;16.80;99.90
67974;DHT22;54756;51.140;6.952;2022-10-16T09:50:22;16.90;99.90
67974;DHT22;54756;51.140;6.952;2022-10-16T09:52:24;16.90;99.90
67974;DHT22;54756;51.140;6.952;2022-10-16T09:54:25;17.00;99.90
67974;DHT22;54756;51.140;6.952;2022-10-16T09:56:34;17.10;99.90
67974;DHT22;54756;51.140;6.952;2022-10-16T09:58:43;17.20;99.90
67974;DHT22;54756;51.140;6.952;2022-10-16T10:00:53;17.30;99.90
67974;DHT22;54756;51.140;6.952;2022-10-16T10:02:54;17.50;99.90
67974;DHT22;54756;51.140;6.952;2022-10-16T10:04:55;17.60;99.90
67974;DHT22;54756;51.140;6.952;2022-10-16T10:06:57;17.70;99.90
67974;DHT22;54756;51.140;6.952;2022-10-16T10:11:15;17.90;99.90
67974;DHT22;54756;51.140;6.952;2022-10-16T10:13:20;17.90;99.90
67974;DHT22;54756;51.140;6.952;2022-10-16T10:15:23;18.00;99.90
67974;DHT22;54756;51.140;6.952;2022-10-16T10:17:28;18.10;99.90
67974;DHT22;54756;51.140;6.952;2022-10-16T10:19:28;18.30;99.90
67974;DHT22;54756;51.140;6.952;2022-10-16T10:21:33;18.50;99.90
67974;DHT22;54756;51.140;6.952;2022-10-16T10:23:33;18.60;99.90
67974;DHT22;54756;51.140;6.952;2022-10-16T10:25:37;18.70;55.30
67974;DHT22;54756;51.140;6.952;2022-10-16T10:32:29;19.30;54.90
67974;DHT22;54756;51.140;6.952;2022-10-16T10:37:10;19.80;44.30
67974;DHT22;54756;51.140;6.952;2022-10-16T10:39:27;19.90;45.20
67974;DHT22;54756;51.140;6.952;2022-10-16T10:43:49;19.90;39.30
67974;DHT22;54756;51.140;6.952;2022-10-16T10:45:57;20.00;40.10
67974;DHT22;54756;51.140;6.952;2022-10-16T10:50:49;19.90;42.80
67974;DHT22;54756;51.140;6.952;2022-10-16T10:53:10;19.90;40.90
67974;DHT22;54756;51.140;6.952;2022-10-16T10:57:35;20.20;36.60
67974;DHT22;54756;51.140;6.952;2022-10-16T11:01:55;20.60;38.50
67974;DHT22;54756;51.140;6.952;2022-10-16T11:06:30;20.90;30.00
67974;DHT22;54756;51.140;6.952;2022-10-16T11:08:42;20.90;30.80
67974;DHT22;54756;51.140;6.952;2022-10-16T11:10:54;21.00;32.70
67974;DHT22;54756;51.140;6.952;2022-10-16T11:15:34;21.20;26.50
67974;DHT22;54756;51.140;6.952;2022-10-16T11:17:39;21.40;27.90
67974;DHT22;54756;51.140;6.952;2022-10-16T11:19:56;21.50;24.00
67974;DHT22;54756;51.140;6.952;2022-10-16T11:22:07;21.50;26.20
67974;DHT22;54756;51.140;6.952;2022-10-16T11:26:39;21.60;20.10
67974;DHT22;54756;51.140;6.952;2022-10-16T11:28:50;21.70;14.60
67974;DHT22;54756;51.140;6.952;2022-10-16T11:31:03;21.90;13.20
67974;DHT22;54756;51.140;6.952;2022-10-16T11:35:17;22.40;16.70
67974;DHT22;54756;51.140;6.952;2022-10-16T11:37:42;22.60;9.30
67974;DHT22;54756;51.140;6.952;2022-10-16T11:39:45;23.10;1.00
67974;DHT22;54756;51.140;6.952;2022-10-16T11:44:26;24.80;1.00
67974;DHT22;54756;51.140;6.952;2022-10-16T11:46:30;25.50;1.00
67974;DHT22;54756;51.140;6.952;2022-10-16T11:48:38;26.30;1.00
67974;DHT22;54756;51.140;6.952;2022-10-16T11:53:45;28.30;1.00
67974;DHT22;54756;51.140;6.952;2022-10-16T11:55:46;29.10;1.00
67974;DHT22;54756;51.140;6.952;2022-10-16T11:57:51;30.00;1.00
67974;DHT22;54756;51.140;6.952;2022-10-16T11:59:57;30.80;1.00
67974;DHT22;54756;51.140;6.952;2022-10-16T12:02:32;31.30;1.00
67974;DHT22;54756;51.140;6.952;2022-10-16T12:04:42;30.80;1.00
67974;DHT22;54756;51.140;6.952;2022-10-16T12:06:53;30.40;1.00
67974;DHT22;54756;51.140;6.952;2022-10-16T12:08:58;30.30;1.00
67974;DHT22;54756;51.140;6.952;2022-10-16T12:13:37;30.20;1.00
67974;DHT22;54756;51.140;6.952;2022-10-16T12:15:38;30.40;1.00
67974;DHT22;54756;51.140;6.952;2022-10-16T12:17:39;30.10;1.00
67974;DHT22;54756;51.140;6.952;2022-10-16T12:19:40;29.80;1.00
67974;DHT22;54756;51.140;6.952;2022-10-16T12:21:41;29.60;1.00
67974;DHT22;54756;51.140;6.952;2022-10-16T12:23:54;30.00;1.00
67974;DHT22;54756;51.140;6.952;2022-10-16T12:25:57;30.40;1.00
67974;DHT22;54756;51.140;6.952;2022-10-16T12:28:06;30.50;1.00
67974;DHT22;54756;51.140;6.952;2022-10-16T12:30:14;30.40;1.00
67974;DHT22;54756;51.140;6.952;2022-10-16T12:34:38;31.50;1.00
67974;DHT22;54756;51.140;6.952;2022-10-16T12:36:39;31.90;1.00
67974;DHT22;54756;51.140;6.952;2022-10-16T12:38:48;32.60;1.00
67974;DHT22;54756;51.140;6.952;2022-10-16T12:41:04;33.30;1.00
67974;DHT22;54756;51.140;6.952;2022-10-16T12:45:31;34.60;1.00
67974;DHT22;54756;51.140;6.952;2022-10-16T12:49:52;35.80;1.00
67974;DHT22;54756;51.140;6.952;2022-10-16T12:51:52;36.60;99.90
67974;DHT22;54756;51.140;6.952;2022-10-16T12:54:13;37.50;99.90
67974;DHT22;54756;51.140;6.952;2022-10-16T13:06:13;33.40;46.60
67974;DHT22;54756;51.140;6.952;2022-10-16T13:10:59;32.20;1.00
67974;DHT22;54756;51.140;6.952;2022-10-16T13:13:20;31.60;1.00
67974;DHT22;54756;51.140;6.952;2022-10-16T13:18:46;30.80;1.00
67974;DHT22;54756;51.140;6.952;2022-10-16T13:20:36;30.30;1.00
67974;DHT22;54756;51.140;6.952;2022-10-16T13:22:51;30.40;1.00
67974;DHT22;54756;51.140;6.952;2022-10-16T13:25:36;31.40;1.00
67974;DHT22;54756;51.140;6.952;2022-10-16T13:28:02;33.40;1.00
67974;DHT22;54756;51.140;6.952;2022-10-16T13:30:15;34.00;99.90
67974;DHT22;54756;51.140;6.952;2022-10-16T13:32:16;35.10;99.90
67974;DHT22;54756;51.140;6.952;2022-10-16T13:34:20;35.40;18.00
67974;DHT22;54756;51.140;6.952;2022-10-16T13:36:27;35.70;1.00
67974;DHT22;54756;51.140;6.952;2022-10-16T13:38:32;36.70;99.90
67974;DHT22;54756;51.140;6.952;2022-10-16T13:40:33;37.70;52.30
67974;DHT22;54756;51.140;6.952;2022-10-16T13:42:34;38.80;1.00
67974;DHT22;54756;51.140;6.952;2022-10-16T13:44:49;39.60;20.60
67974;DHT22;54756;51.140;6.952;2022-10-16T13:47:00;40.40;1.00
67974;DHT22;54756;51.140;6.952;2022-10-16T13:49:04;41.30;1.00
67974;DHT22;54756;51.140;6.952;2022-10-16T13:51:16;41.70;1.00
67974;DHT22;54756;51.140;6.952;2022-10-16T13:53:17;41.90;1.00
67974;DHT22;54756;51.140;6.952;2022-10-16T13:55:18;42.30;1.00
67974;DHT22;54756;51.140;6.952;2022-10-16T13:57:22;42.40;1.00
67974;DHT22;54756;51.140;6.952;2022-10-16T14:01:28;40.80;99.90
67974;DHT22;54756;51.140;6.952;2022-10-16T14:03:30;39.20;99.90
67974;DHT22;54756;51.140;6.952;2022-10-16T14:05:30;38.30;99.90
67974;DHT22;54756;51.140;6.952;2022-10-16T14:07:33;37.30;99.90
67974;DHT22;54756;51.140;6.952;2022-10-16T14:09:34;35.90;99.90
67974;DHT22;54756;51.140;6.952;2022-10-16T14:11:46;34.40;99.90
67974;DHT22;54756;51.140;6.952;2022-10-16T14:13:48;33.00;1.00
67974;DHT22;54756;51.140;6.952;2022-10-16T14:15:51;31.70;99.90
67974;DHT22;54756;51.140;6.952;2022-10-16T14:17:53;30.60;1.00
67974;DHT22;54756;51.140;6.952;2022-10-16T14:19:56;29.60;1.00
67974;DHT22;54756;51.140;6.952;2022-10-16T14:21:58;28.90;1.00
67974;DHT22;54756;51.140;6.952;2022-10-16T14:24:11;28.30;1.00
67974;DHT22;54756;51.140;6.952;2022-10-16T14:26:14;27.70;1.00